Time;durP1;ratioP1;P1;durP2;ratioP2;P2;SDS_P1;SDS_P2;PMS_P1;PMS_P2;Temp;Humidity;BMP_temperature;BMP_pressure;BME280_temperature;BME280_humidity;BME280_pressure;Samples;Min_cycle;Max_cycle;Signal;HPM_P1;HPM_P2
2022/06/05 00:00:30;;;;;;;8.65;5.75;;;;;;;;;;4989105;28;20487;-86
2022/06/05 00:03:09;;;;;;;7.63;5.28;;;;;;;;;;4983650;28;20023;-89
2022/06/05 00:05:43;;;;;;;7.13;5.22;;;;;;;;;;4994717;28;20065;-89
2022/06/05 00:08:13;;;;;;;9.38;5.43;;;;;;;;;;4992502;28;20109;-88
2022/06/05 00:10:43;;;;;;;8.25;5.80;;;;;;;;;;4989239;28;20030;-88
2022/06/05 00:13:20;;;;;;;8.35;5.50;;;;;;;;;;5005914;28;20092;-86
2022/06/05 00:15:46;;;;;;;6.70;5.53;;;;;;;;;;5001277;28;20030;-88
2022/06/05 00:18:12;;;;;;;8.43;5.40;;;;;;;;;;4976354;28;20121;-88
2022/06/05 00:20:41;;;;;;;7.55;5.35;;;;;;;;;;4982045;28;20057;-89
2022/06/05 00:23:07;;;;;;;9.93;5.90;;;;;;;;;;4992023;28;20043;-87
2022/06/05 00:25:57;;;;;;;8.20;5.05;;;;;;;;;;4978224;28;20358;-89
2022/06/05 00:28:29;;;;;;;8.70;5.22;;;;;;;;;;4971924;28;20038;-88
2022/06/05 00:30:55;;;;;;;11.73;5.53;;;;;;;;;;4988022;28;20046;-87
2022/06/05 00:33:27;;;;;;;11.70;5.45;;;;;;;;;;4996724;28;20121;-88
2022/06/05 00:36:07;;;;;;;7.63;5.40;;;;;;;;;;4996272;28;20049;-88
2022/06/05 00:38:38;;;;;;;12.75;5.22;;;;;;;;;;4997277;28;20113;-86
2022/06/05 00:41:21;;;;;;;8.45;5.05;;;;;;;;;;4991319;28;20030;-90
2022/06/05 00:43:48;;;;;;;7.45;5.40;;;;;;;;;;4985593;28;20034;-86
2022/06/05 00:46:14;;;;;;;7.10;5.50;;;;;;;;;;4976277;28;20027;-88
2022/06/05 00:48:40;;;;;;;9.52;6.10;;;;;;;;;;4978534;28;20027;-87
2022/06/05 00:51:06;;;;;;;9.52;5.35;;;;;;;;;;4976082;28;20027;-87
2022/06/05 00:53:32;;;;;;;7.57;4.93;;;;;;;;;;4981691;28;20030;-88
2022/06/05 00:55:58;;;;;;;9.65;5.10;;;;;;;;;;4997357;28;20042;-89
2022/06/05 00:58:25;;;;;;;7.85;5.00;;;;;;;;;;5008559;28;20245;-88
2022/06/05 01:00:52;;;;;;;8.25;5.03;;;;;;;;;;5008218;28;20030;-88
2022/06/05 01:03:19;;;;;;;8.32;5.25;;;;;;;;;;5008523;28;20022;-88
2022/06/05 01:05:45;;;;;;;8.10;4.80;;;;;;;;;;5024321;28;20040;-89
2022/06/05 01:08:13;;;;;;;7.93;5.35;;;;;;;;;;4995634;28;20062;-87
2022/06/05 01:10:39;;;;;;;11.02;5.68;;;;;;;;;;4988152;28;20026;-87
2022/06/05 01:13:11;;;;;;;7.28;5.13;;;;;;;;;;4995205;28;20085;-87
2022/06/05 01:15:42;;;;;;;9.85;5.22;;;;;;;;;;4994930;28;20057;-87
2022/06/05 01:18:24;;;;;;;10.73;5.25;;;;;;;;;;4995061;28;20031;-87
2022/06/05 01:21:09;;;;;;;8.98;5.10;;;;;;;;;;4988214;28;20065;-88
2022/06/05 01:23:58;;;;;;;8.15;4.95;;;;;;;;;;5006893;28;20129;-88
2022/06/05 01:26:38;;;;;;;9.07;5.07;;;;;;;;;;5007932;28;20083;-88
2022/06/05 01:29:04;;;;;;;8.27;4.60;;;;;;;;;;5018636;28;20095;-87
2022/06/05 01:31:54;;;;;;;7.07;5.07;;;;;;;;;;4977399;28;20037;-87
2022/06/05 01:34:27;;;;;;;7.80;4.70;;;;;;;;;;4971574;28;20051;-88
2022/06/05 01:36:56;;;;;;;9.30;5.47;;;;;;;;;;5016396;28;20034;-90
2022/06/05 01:39:25;;;;;;;9.20;5.30;;;;;;;;;;4976621;28;20097;-87
2022/06/05 01:41:54;;;;;;;8.27;5.43;;;;;;;;;;4988207;28;20038;-88
2022/06/05 01:44:24;;;;;;;9.18;5.15;;;;;;;;;;4977821;28;20427;-88
2022/06/05 01:46:51;;;;;;;7.90;5.13;;;;;;;;;;4991154;28;20041;-89
2022/06/05 01:49:23;;;;;;;9.32;5.22;;;;;;;;;;5013973;28;20048;-88
2022/06/05 01:52:00;;;;;;;10.00;5.17;;;;;;;;;;5014335;28;20026;-86
2022/06/05 01:54:50;;;;;;;8.48;5.03;;;;;;;;;;4978956;28;20186;-89
2022/06/05 01:57:17;;;;;;;7.25;5.05;;;;;;;;;;4952093;28;20074;-88
2022/06/05 01:59:45;;;;;;;6.22;5.10;;;;;;;;;;4952577;29;20040;-88
2022/06/05 02:02:14;;;;;;;9.38;5.20;;;;;;;;;;4951249;28;20035;-89
2022/06/05 02:04:46;;;;;;;8.70;5.45;;;;;;;;;;4951684;28;20505;-87
2022/06/05 02:07:23;;;;;;;8.60;5.20;;;;;;;;;;4951854;28;20032;-88
2022/06/05 02:09:53;;;;;;;8.75;4.82;;;;;;;;;;4951176;28;20496;-91
2022/06/05 02:12:19;;;;;;;14.23;5.40;;;;;;;;;;4949562;29;20028;-88
2022/06/05 02:14:46;;;;;;;7.13;5.15;;;;;;;;;;4951722;29;20138;-88
2022/06/05 02:17:14;;;;;;;8.07;5.20;;;;;;;;;;4950530;29;20070;-89
2022/06/05 02:19:41;;;;;;;14.18;5.70;;;;;;;;;;4950072;29;20039;-88
2022/06/05 02:22:13;;;;;;;7.95;5.18;;;;;;;;;;4951708;29;20036;-88
2022/06/05 02:24:40;;;;;;;10.40;5.15;;;;;;;;;;4951529;29;20127;-87
2022/06/05 02:27:07;;;;;;;10.23;5.15;;;;;;;;;;4951471;29;20028;-89
2022/06/05 02:29:33;;;;;;;9.05;5.18;;;;;;;;;;4952117;29;20031;-89
2022/06/05 02:32:28;;;;;;;7.25;5.10;;;;;;;;;;4934112;29;20056;-87
2022/06/05 02:34:54;;;;;;;7.70;5.07;;;;;;;;;;4941605;28;20052;-88
2022/06/05 02:37:23;;;;;;;8.82;5.20;;;;;;;;;;4954040;28;20038;-89
2022/06/05 02:40:28;;;;;;;8.32;4.90;;;;;;;;;;4968900;28;20043;-89
2022/06/05 02:43:02;;;;;;;7.28;4.90;;;;;;;;;;4930480;29;20040;-88
2022/06/05 02:45:44;;;;;;;8.73;5.10;;;;;;;;;;4931606;29;20042;-88
2022/06/05 02:48:18;;;;;;;6.75;5.20;;;;;;;;;;4920169;29;20526;-87
2022/06/05 02:50:45;;;;;;;7.28;5.35;;;;;;;;;;4902783;29;20569;-88
2022/06/05 02:53:12;;;;;;;9.15;5.13;;;;;;;;;;4933053;29;20129;-91
2022/06/05 02:55:38;;;;;;;7.40;4.78;;;;;;;;;;4932218;29;20035;-89
2022/06/05 02:58:04;;;;;;;8.35;4.75;;;;;;;;;;4914784;29;20044;-89
2022/06/05 03:00:32;;;;;;;11.18;4.90;;;;;;;;;;4930628;29;20040;-88
2022/06/05 03:05:43;;;;;;;9.93;4.80;;;;;;;;;;4916041;29;20394;-89
2022/06/05 03:08:10;;;;;;;7.78;4.90;;;;;;;;;;4931954;29;20042;-88
2022/06/05 03:10:37;;;;;;;6.88;4.40;;;;;;;;;;4936056;29;20173;-89
2022/06/05 03:13:03;;;;;;;8.93;4.50;;;;;;;;;;4961648;28;20441;-88
2022/06/05 03:15:30;;;;;;;9.30;4.47;;;;;;;;;;4992913;28;20026;-89
2022/06/05 03:17:56;;;;;;;8.77;4.72;;;;;;;;;;4988151;28;20030;-88
2022/06/05 03:20:23;;;;;;;5.90;4.07;;;;;;;;;;5006410;28;20063;-88
2022/06/05 03:22:50;;;;;;;5.68;3.58;;;;;;;;;;5010055;28;20477;-86
2022/06/05 03:25:18;;;;;;;5.05;3.20;;;;;;;;;;4993327;28;20034;-88
2022/06/05 03:27:46;;;;;;;6.70;3.70;;;;;;;;;;4992996;28;20145;-88
2022/06/05 03:30:15;;;;;;;6.22;3.33;;;;;;;;;;4992968;28;20030;-88
2022/06/05 03:32:41;;;;;;;6.60;3.17;;;;;;;;;;4982086;28;20030;-87
2022/06/05 03:35:11;;;;;;;5.00;3.03;;;;;;;;;;5001893;28;20140;-87
2022/06/05 03:37:40;;;;;;;5.60;2.97;;;;;;;;;;4987444;28;20037;-88
2022/06/05 03:40:10;;;;;;;5.65;3.60;;;;;;;;;;4974717;28;20035;-89
2022/06/05 03:42:37;;;;;;;8.95;3.22;;;;;;;;;;4974388;28;20074;-88
2022/06/05 03:45:06;;;;;;;6.18;3.08;;;;;;;;;;4991358;28;20054;-89
2022/06/05 03:47:32;;;;;;;7.28;2.90;;;;;;;;;;5011626;28;20029;-88
2022/06/05 03:49:58;;;;;;;6.30;3.00;;;;;;;;;;5012317;28;20088;-88
2022/06/05 03:52:24;;;;;;;5.50;3.10;;;;;;;;;;4981853;28;20086;-88
2022/06/05 03:54:51;;;;;;;4.18;2.70;;;;;;;;;;4974622;28;20407;-87
2022/06/05 03:57:17;;;;;;;6.68;2.85;;;;;;;;;;4993378;28;20057;-87
2022/06/05 03:59:44;;;;;;;4.82;2.90;;;;;;;;;;4974583;28;20031;-90
2022/06/05 04:02:11;;;;;;;9.38;3.47;;;;;;;;;;5005392;28;20492;-88
2022/06/05 04:04:37;;;;;;;6.70;3.35;;;;;;;;;;5005743;28;20543;-87
2022/06/05 04:07:03;;;;;;;7.20;3.40;;;;;;;;;;5017217;28;20038;-88
2022/06/05 04:09:29;;;;;;;8.18;3.50;;;;;;;;;;4992465;28;20034;-88
2022/06/05 04:11:55;;;;;;;7.03;3.65;;;;;;;;;;4993489;28;20085;-89
2022/06/05 04:14:22;;;;;;;7.75;3.70;;;;;;;;;;4992017;28;20390;-88
2022/06/05 04:16:48;;;;;;;8.15;3.75;;;;;;;;;;4990769;28;20436;-87
2022/06/05 04:19:14;;;;;;;11.02;3.78;;;;;;;;;;5007930;28;20034;-88
2022/06/05 04:21:43;;;;;;;11.40;4.63;;;;;;;;;;5003025;28;20146;-89
2022/06/05 04:24:11;;;;;;;7.60;4.10;;;;;;;;;;5008474;28;20460;-86
2022/06/05 04:26:38;;;;;;;5.18;3.67;;;;;;;;;;5010642;28;20127;-88
2022/06/05 04:29:04;;;;;;;6.95;3.58;;;;;;;;;;4987721;28;20027;-87
2022/06/05 04:31:32;;;;;;;8.07;3.72;;;;;;;;;;4992301;28;20584;-89
2022/06/05 04:33:59;;;;;;;6.22;3.22;;;;;;;;;;4987964;28;20485;-88
2022/06/05 04:36:25;;;;;;;7.60;3.67;;;;;;;;;;4981041;28;20107;-85
2022/06/05 04:38:52;;;;;;;8.45;4.22;;;;;;;;;;4993402;28;20073;-86
2022/06/05 04:41:18;;;;;;;6.15;3.45;;;;;;;;;;4981587;28;20034;-88
2022/06/05 04:43:45;;;;;;;6.63;3.38;;;;;;;;;;4987268;28;20030;-78
2022/06/05 04:46:11;;;;;;;6.18;3.60;;;;;;;;;;4988443;28;20027;-76
2022/06/05 04:48:37;;;;;;;7.75;3.60;;;;;;;;;;4983643;28;20046;-78
2022/06/05 04:51:04;;;;;;;9.60;4.20;;;;;;;;;;4984398;28;20551;-78
2022/06/05 04:53:30;;;;;;;5.63;3.75;;;;;;;;;;4982730;28;20042;-83
2022/06/05 04:55:57;;;;;;;8.48;4.03;;;;;;;;;;4984379;28;20035;-90
2022/06/05 04:58:23;;;;;;;13.43;4.57;;;;;;;;;;4981409;28;20026;-87
2022/06/05 05:00:50;;;;;;;6.60;3.65;;;;;;;;;;4998686;28;20046;-89
2022/06/05 05:03:16;;;;;;;5.55;3.63;;;;;;;;;;4991974;28;20042;-84
2022/06/05 05:05:42;;;;;;;7.50;3.60;;;;;;;;;;4997490;28;20031;-84
2022/06/05 05:08:08;;;;;;;6.28;3.38;;;;;;;;;;4996921;28;20026;-83
2022/06/05 05:10:34;;;;;;;8.60;3.50;;;;;;;;;;4997495;28;20057;-86
2022/06/05 05:13:00;;;;;;;8.07;3.40;;;;;;;;;;5005629;28;20027;-80
2022/06/05 05:15:27;;;;;;;12.73;4.60;;;;;;;;;;5003348;28;20538;-80
2022/06/05 05:17:53;;;;;;;9.95;4.40;;;;;;;;;;4995784;28;20480;-77
2022/06/05 05:20:20;;;;;;;8.38;3.78;;;;;;;;;;5000134;28;20169;-82
2022/06/05 05:22:46;;;;;;;10.07;3.58;;;;;;;;;;5002564;28;20034;-87
2022/06/05 05:25:12;;;;;;;7.45;3.70;;;;;;;;;;5001286;28;20090;-88
2022/06/05 05:27:39;;;;;;;6.90;3.90;;;;;;;;;;4989840;28;20019;-86
2022/06/05 05:30:06;;;;;;;9.00;3.67;;;;;;;;;;5005809;28;20034;-92
2022/06/05 05:32:32;;;;;;;5.43;3.35;;;;;;;;;;5004434;28;20018;-85
2022/06/05 05:34:58;;;;;;;5.97;3.70;;;;;;;;;;4989660;28;20066;-88
2022/06/05 05:37:24;;;;;;;6.93;3.83;;;;;;;;;;4996925;28;20041;-87
2022/06/05 05:42:35;;;;;;;7.28;3.28;;;;;;;;;;5004748;28;20037;-82
2022/06/05 05:45:01;;;;;;;6.63;3.53;;;;;;;;;;5001820;28;20088;-82
2022/06/05 05:47:28;;;;;;;7.32;3.30;;;;;;;;;;4997112;28;20026;-84
2022/06/05 05:49:56;;;;;;;6.43;3.67;;;;;;;;;;5003864;28;20044;-84
2022/06/05 06:04:48;;;;;;;8.95;3.67;;;;;;;;;;5074914;27;20399;-75
2022/06/05 06:07:14;;;;;;;7.03;3.70;;;;;;;;;;5083805;28;20037;-76
2022/06/05 06:09:41;;;;;;;12.52;4.07;;;;;;;;;;5063322;28;20094;-79
2022/06/05 06:12:07;;;;;;;13.00;4.30;;;;;;;;;;5064900;28;20029;-77
2022/06/05 06:14:34;;;;;;;6.80;3.88;;;;;;;;;;5098430;28;20043;-82
2022/06/05 06:17:00;;;;;;;9.77;4.13;;;;;;;;;;5069626;28;20096;-86
2022/06/05 06:19:26;;;;;;;6.70;3.78;;;;;;;;;;5067374;28;20028;-83
2022/06/05 06:21:54;;;;;;;9.57;4.32;;;;;;;;;;5069877;28;20017;-83
2022/06/05 06:24:20;;;;;;;6.85;3.90;;;;;;;;;;5070291;28;20037;-80
2022/06/05 06:26:46;;;;;;;7.97;3.95;;;;;;;;;;5070946;28;20025;-81
2022/06/05 06:29:12;;;;;;;7.35;3.92;;;;;;;;;;5055748;28;20029;-84
2022/06/05 06:31:39;;;;;;;7.85;4.47;;;;;;;;;;5066466;28;20012;-80
2022/06/05 06:34:06;;;;;;;9.05;4.28;;;;;;;;;;5065741;28;20049;-83
2022/06/05 06:36:32;;;;;;;11.32;4.72;;;;;;;;;;5071198;28;20040;-83
2022/06/05 06:38:58;;;;;;;13.20;4.88;;;;;;;;;;5080604;28;20029;-76
2022/06/05 06:41:25;;;;;;;11.70;4.28;;;;;;;;;;5059488;28;20032;-81
2022/06/05 06:43:51;;;;;;;7.53;4.43;;;;;;;;;;5072885;28;20029;-83
2022/06/05 06:46:18;;;;;;;8.48;4.47;;;;;;;;;;5067072;28;20083;-84
2022/06/05 06:48:44;;;;;;;9.50;4.60;;;;;;;;;;5067691;28;20061;-84
2022/06/05 06:51:11;;;;;;;8.82;4.53;;;;;;;;;;5079294;28;20123;-87
2022/06/05 06:53:37;;;;;;;11.35;4.75;;;;;;;;;;5061882;28;20547;-83
2022/06/05 06:56:07;;;;;;;17.33;6.82;;;;;;;;;;5068781;28;20386;-80
2022/06/05 06:58:33;;;;;;;10.38;4.72;;;;;;;;;;5056987;28;20054;-82
2022/06/05 07:00:59;;;;;;;10.30;4.50;;;;;;;;;;5061404;28;20021;-82
2022/06/05 07:03:25;;;;;;;12.60;4.30;;;;;;;;;;5075225;28;20057;-86
2022/06/05 07:05:51;;;;;;;9.35;5.20;;;;;;;;;;5068478;28;20109;-78
2022/06/05 07:08:17;;;;;;;7.90;4.53;;;;;;;;;;5071464;28;20028;-82
2022/06/05 07:10:44;;;;;;;7.30;4.70;;;;;;;;;;5067382;28;20032;-78
2022/06/05 07:13:13;;;;;;;7.35;4.68;;;;;;;;;;5068456;28;20037;-81
2022/06/05 07:15:39;;;;;;;10.68;3.72;;;;;;;;;;5066250;28;20584;-81
2022/06/05 07:18:06;;;;;;;17.42;12.32;;;;;;;;;;5068476;28;20081;-79
2022/06/05 07:20:34;;;;;;;8.40;4.45;;;;;;;;;;5068563;28;20029;-84
2022/06/05 07:23:00;;;;;;;16.48;5.05;;;;;;;;;;5064277;28;20050;-83
2022/06/05 07:25:26;;;;;;;8.02;4.63;;;;;;;;;;5069785;28;20032;-80
2022/06/05 07:27:52;;;;;;;22.52;18.77;;;;;;;;;;5073091;28;20060;-83
2022/06/05 07:30:18;;;;;;;6.53;4.40;;;;;;;;;;5069028;28;20482;-86
2022/06/05 07:32:47;;;;;;;6.43;4.07;;;;;;;;;;5072650;28;20040;-78
2022/06/05 07:35:13;;;;;;;8.15;4.05;;;;;;;;;;5061416;28;20024;-76
2022/06/05 07:37:39;;;;;;;9.30;4.40;;;;;;;;;;5070517;28;20416;-77
2022/06/05 07:40:06;;;;;;;10.48;4.68;;;;;;;;;;5073684;28;20031;-75
2022/06/05 07:42:32;;;;;;;8.65;3.88;;;;;;;;;;5070390;28;20107;-78
2022/06/05 07:44:58;;;;;;;11.35;4.07;;;;;;;;;;5065052;28;20021;-77
2022/06/05 07:47:24;;;;;;;14.45;4.90;;;;;;;;;;5069091;28;20024;-77
2022/06/05 07:49:50;;;;;;;11.23;4.60;;;;;;;;;;5072829;28;20016;-79
2022/06/05 07:55:01;;;;;;;15.70;5.18;;;;;;;;;;5071598;28;20448;-78
2022/06/05 07:57:27;;;;;;;9.23;5.05;;;;;;;;;;5068845;28;20103;-79
2022/06/05 07:59:54;;;;;;;17.25;5.13;;;;;;;;;;5070329;28;20028;-78
2022/06/05 08:02:21;;;;;;;17.45;5.13;;;;;;;;;;5070872;28;20033;-80
2022/06/05 08:04:48;;;;;;;8.48;4.15;;;;;;;;;;5066150;28;20051;-82
2022/06/05 08:07:16;;;;;;;7.50;3.80;;;;;;;;;;5063395;28;20025;-77
2022/06/05 08:09:42;;;;;;;14.45;4.15;;;;;;;;;;5069658;28;20082;-77
2022/06/05 08:12:10;;;;;;;7.35;3.60;;;;;;;;;;5069428;28;20028;-76
2022/06/05 08:14:36;;;;;;;15.63;5.65;;;;;;;;;;5071077;28;20044;-77
2022/06/05 08:17:07;;;;;;;10.48;3.78;;;;;;;;;;5059214;28;20078;-79
2022/06/05 08:19:33;;;;;;;15.98;4.05;;;;;;;;;;5061823;28;20025;-77
2022/06/05 08:21:59;;;;;;;7.32;3.65;;;;;;;;;;5074626;28;20021;-79
2022/06/05 08:24:25;;;;;;;9.45;4.38;;;;;;;;;;5067272;28;20032;-78
2022/06/05 08:26:52;;;;;;;4.72;3.20;;;;;;;;;;5068702;28;20104;-80
2022/06/05 08:29:19;;;;;;;19.00;4.30;;;;;;;;;;5066658;28;20029;-81
2022/06/05 08:31:45;;;;;;;8.15;3.40;;;;;;;;;;5072278;28;20040;-85
2022/06/05 08:34:12;;;;;;;12.50;3.65;;;;;;;;;;5070250;28;20044;-82
2022/06/05 08:36:38;;;;;;;13.93;4.18;;;;;;;;;;5069385;28;20109;-83
2022/06/05 08:42:04;;;;;;;10.07;4.03;;;;;;;;;;5063754;28;20085;-83
2022/06/05 08:44:36;;;;;;;8.52;4.15;;;;;;;;;;5053581;28;20624;-75
2022/06/05 08:47:18;;;;;;;7.20;3.88;;;;;;;;;;5071232;28;20064;-75
2022/06/05 08:49:46;;;;;;;14.55;7.07;;;;;;;;;;5063301;28;20040;-73
2022/06/05 08:52:27;;;;;;;7.95;3.63;;;;;;;;;;5061117;28;20029;-74
2022/06/05 08:54:59;;;;;;;8.98;4.50;;;;;;;;;;5056998;28;20079;-73
2022/06/05 08:57:28;;;;;;;10.68;5.72;;;;;;;;;;5073358;28;20458;-73
2022/06/05 08:59:58;;;;;;;11.27;5.10;;;;;;;;;;5070360;28;20127;-75
2022/06/05 09:02:36;;;;;;;7.72;4.20;;;;;;;;;;5072119;28;20029;-74
2022/06/05 09:05:06;;;;;;;8.77;4.82;;;;;;;;;;5073390;28;20035;-74
2022/06/05 09:07:34;;;;;;;10.20;5.72;;;;;;;;;;5073229;28;20097;-73
2022/06/05 09:10:04;;;;;;;10.82;4.30;;;;;;;;;;5059904;28;20147;-73
2022/06/05 09:12:30;;;;;;;8.25;3.80;;;;;;;;;;5062059;28;20036;-74
2022/06/05 09:14:56;;;;;;;4.38;3.55;;;;;;;;;;5053306;28;20037;-73
2022/06/05 09:17:23;;;;;;;7.80;4.15;;;;;;;;;;5053061;28;20049;-75
2022/06/05 09:19:50;;;;;;;8.75;4.82;;;;;;;;;;5058551;28;20030;-73
2022/06/05 09:22:28;;;;;;;6.18;4.28;;;;;;;;;;5069349;28;20083;-78
2022/06/05 09:25:13;;;;;;;8.05;4.90;;;;;;;;;;5062745;28;20039;-73
2022/06/05 09:27:39;;;;;;;7.22;4.40;;;;;;;;;;5071636;28;20020;-82
2022/06/05 09:30:10;;;;;;;10.50;4.30;;;;;;;;;;5069241;28;20437;-72
2022/06/05 09:32:39;;;;;;;7.93;3.88;;;;;;;;;;5070349;28;20068;-85
2022/06/05 09:35:26;;;;;;;10.85;4.72;;;;;;;;;;5055951;28;20026;-73
2022/06/05 09:38:12;;;;;;;7.28;4.30;;;;;;;;;;5011213;28;20037;-78
2022/06/05 09:40:39;;;;;;;6.60;4.28;;;;;;;;;;4996158;28;20417;-78
2022/06/05 09:43:24;;;;;;;8.05;4.07;;;;;;;;;;4991411;28;20042;-85
2022/06/05 09:45:53;;;;;;;18.42;5.13;;;;;;;;;;5011393;28;20153;-78
2022/06/05 09:48:40;;;;;;;8.32;4.45;;;;;;;;;;5001874;28;20373;-75
2022/06/05 09:51:11;;;;;;;6.38;4.30;;;;;;;;;;4992760;28;20026;-75
2022/06/05 09:53:42;;;;;;;11.50;4.50;;;;;;;;;;4991347;28;20092;-82
2022/06/05 09:56:36;;;;;;;10.52;4.47;;;;;;;;;;4992403;28;20125;-79
2022/06/05 09:59:22;;;;;;;5.93;4.13;;;;;;;;;;4989470;28;20041;-74
2022/06/05 10:01:50;;;;;;;5.75;4.03;;;;;;;;;;4991585;28;20038;-74
2022/06/05 10:04:17;;;;;;;7.30;4.50;;;;;;;;;;4991175;28;20580;-73
2022/06/05 10:06:46;;;;;;;9.20;4.18;;;;;;;;;;5006516;28;20120;-72
2022/06/05 10:09:14;;;;;;;26.13;16.27;;;;;;;;;;4993723;28;20042;-73
2022/06/05 10:11:48;;;;;;;8.98;3.75;;;;;;;;;;4991239;28;20385;-74
2022/06/05 10:14:27;;;;;;;9.07;3.90;;;;;;;;;;5014138;28;20127;-77
2022/06/05 10:16:57;;;;;;;6.40;4.38;;;;;;;;;;5053781;28;20551;-74
2022/06/05 10:19:45;;;;;;;9.35;4.00;;;;;;;;;;5062082;28;20107;-74
2022/06/05 10:22:21;;;;;;;5.18;3.88;;;;;;;;;;5021901;28;20537;-76
2022/06/05 10:24:55;;;;;;;7.47;3.83;;;;;;;;;;5011608;28;20125;-74
2022/06/05 10:27:22;;;;;;;7.80;3.78;;;;;;;;;;5027616;28;20029;-74
2022/06/05 10:29:50;;;;;;;58.40;6.88;;;;;;;;;;5017856;28;20340;-78
2022/06/05 10:32:29;;;;;;;6.40;3.67;;;;;;;;;;5020946;28;20041;-75
2022/06/05 10:35:16;;;;;;;8.80;3.95;;;;;;;;;;5013630;28;20021;-80
2022/06/05 10:37:52;;;;;;;6.53;3.83;;;;;;;;;;5026262;28;20495;-74
2022/06/05 10:40:25;;;;;;;7.40;3.97;;;;;;;;;;5024399;28;20029;-84
2022/06/05 10:43:10;;;;;;;8.90;4.30;;;;;;;;;;5017505;28;20037;-76
2022/06/05 10:45:57;;;;;;;12.02;4.13;;;;;;;;;;5026283;28;20041;-77
2022/06/05 10:48:23;;;;;;;8.68;4.03;;;;;;;;;;5033467;28;20021;-75
2022/06/05 10:50:55;;;;;;;8.48;3.85;;;;;;;;;;5030235;28;20116;-88
2022/06/05 10:53:24;;;;;;;7.47;3.35;;;;;;;;;;5011855;28;20037;-85
2022/06/05 10:55:56;;;;;;;11.15;4.38;;;;;;;;;;5007324;28;20450;-82
2022/06/05 10:58:22;;;;;;;7.85;3.80;;;;;;;;;;5030126;28;20021;-82
2022/06/05 11:00:51;;;;;;;6.90;3.90;;;;;;;;;;5063988;28;20024;-87
2022/06/05 11:03:17;;;;;;;7.05;4.18;;;;;;;;;;5069767;28;20049;-81
2022/06/05 11:05:43;;;;;;;6.35;4.00;;;;;;;;;;5062297;28;20029;-81
2022/06/05 11:08:24;;;;;;;8.88;3.88;;;;;;;;;;5069524;28;20056;-84
2022/06/05 11:14:04;;;;;;;7.80;3.75;;;;;;;;;;5048110;28;20040;-75
2022/06/05 11:16:38;;;;;;;6.82;3.72;;;;;;;;;;5049099;28;20120;-88
2022/06/05 11:19:22;;;;;;;8.10;3.72;;;;;;;;;;5050389;28;20407;-83
2022/06/05 11:21:50;;;;;;;7.72;4.78;;;;;;;;;;5051668;28;20025;-75
2022/06/05 11:24:22;;;;;;;7.70;4.90;;;;;;;;;;5046595;28;20036;-76
2022/06/05 11:26:54;;;;;;;8.37;3.60;;;;;;;;;;5049485;28;20037;-77
2022/06/05 11:29:26;;;;;;;9.67;3.97;;;;;;;;;;5046329;28;20029;-75
2022/06/05 11:32:04;;;;;;;7.45;3.95;;;;;;;;;;5047021;28;20041;-75
2022/06/05 11:34:30;;;;;;;7.18;3.75;;;;;;;;;;5052429;28;20414;-74
2022/06/05 11:37:00;;;;;;;7.88;3.60;;;;;;;;;;5051288;28;20545;-74
2022/06/05 11:39:33;;;;;;;11.25;3.78;;;;;;;;;;5049955;28;20033;-76
2022/06/05 11:41:59;;;;;;;8.65;3.60;;;;;;;;;;5047460;28;20075;-81
2022/06/05 11:44:30;;;;;;;4.97;3.50;;;;;;;;;;5032649;28;20036;-78
2022/06/05 11:47:02;;;;;;;9.38;3.15;;;;;;;;;;5018585;28;20040;-83
2022/06/05 11:49:37;;;;;;;9.57;3.47;;;;;;;;;;5028401;28;20036;-83
2022/06/05 11:52:03;;;;;;;12.35;4.30;;;;;;;;;;5067501;28;20040;-84
2022/06/05 11:54:36;;;;;;;11.82;3.95;;;;;;;;;;5053794;28;20033;-88
2022/06/05 11:57:05;;;;;;;11.30;4.10;;;;;;;;;;5063391;28;20025;-86
2022/06/05 11:59:46;;;;;;;9.80;3.28;;;;;;;;;;5055751;28;20406;-88
2022/06/05 12:02:12;;;;;;;8.38;3.53;;;;;;;;;;5058099;28;20033;-85
2022/06/05 12:04:44;;;;;;;11.25;3.58;;;;;;;;;;5053154;28;20132;-87
2022/06/05 12:07:13;;;;;;;5.88;3.38;;;;;;;;;;5061291;28;20036;-88
2022/06/05 12:09:49;;;;;;;7.93;3.55;;;;;;;;;;5068617;28;20378;-82
2022/06/05 12:12:22;;;;;;;5.38;3.42;;;;;;;;;;5068646;28;20037;-82
2022/06/05 12:15:04;;;;;;;7.60;3.78;;;;;;;;;;5062872;28;20032;-85
2022/06/05 12:17:42;;;;;;;6.40;3.75;;;;;;;;;;5063019;28;20066;-82
2022/06/05 12:20:27;;;;;;;5.65;3.55;;;;;;;;;;5060429;28;20105;-85
2022/06/05 12:23:02;;;;;;;8.20;3.30;;;;;;;;;;5061452;28;20025;-79
2022/06/05 12:25:32;;;;;;;7.53;3.60;;;;;;;;;;5053797;28;20124;-79
2022/06/05 12:28:02;;;;;;;7.65;3.50;;;;;;;;;;5059647;28;20035;-84
2022/06/05 12:30:36;;;;;;;5.22;3.28;;;;;;;;;;5069872;28;20063;-80
2022/06/05 12:33:14;;;;;;;7.35;3.67;;;;;;;;;;5053457;28;20421;-84
2022/06/05 12:35:44;;;;;;;5.38;3.03;;;;;;;;;;5057202;28;20028;-87
2022/06/05 12:38:28;;;;;;;5.43;3.05;;;;;;;;;;5071068;28;20101;-84
2022/06/05 12:41:17;;;;;;;8.23;3.30;;;;;;;;;;5065011;28;20059;-84
2022/06/05 12:44:02;;;;;;;5.43;3.40;;;;;;;;;;5056121;28;20039;-85
2022/06/05 12:46:36;;;;;;;10.82;3.30;;;;;;;;;;5063694;28;20099;-82
2022/06/05 12:49:25;;;;;;;6.18;3.10;;;;;;;;;;5066716;28;20024;-84
2022/06/05 12:51:56;;;;;;;7.10;3.75;;;;;;;;;;4973873;28;20113;-78
2022/06/05 12:54:39;;;;;;;15.45;9.55;;;;;;;;;;4971277;28;20070;-83
2022/06/05 12:57:09;;;;;;;9.07;3.95;;;;;;;;;;4973597;28;20038;-86
2022/06/05 12:59:41;;;;;;;4.57;3.47;;;;;;;;;;4973532;28;20027;-87
2022/06/05 13:02:30;;;;;;;6.40;3.42;;;;;;;;;;4988260;28;20448;-84
2022/06/05 13:05:02;;;;;;;7.72;3.88;;;;;;;;;;4970846;28;20155;-83
2022/06/05 13:07:38;;;;;;;5.67;3.20;;;;;;;;;;4970938;28;20474;-85
2022/06/05 13:10:25;;;;;;;7.45;4.10;;;;;;;;;;4976005;28;20534;-86
2022/06/05 13:13:10;;;;;;;10.52;5.25;;;;;;;;;;4988308;28;20045;-87
2022/06/05 13:15:56;;;;;;;5.90;3.58;;;;;;;;;;4988460;28;20038;-84
2022/06/05 13:18:22;;;;;;;5.18;3.35;;;;;;;;;;4971108;28;20096;-81
2022/06/05 13:20:49;;;;;;;11.70;3.80;;;;;;;;;;4971121;28;20113;-84
2022/06/05 13:23:27;;;;;;;17.15;5.15;;;;;;;;;;4973979;28;20046;-83
2022/06/05 13:25:58;;;;;;;7.50;3.50;;;;;;;;;;4990307;28;20400;-85
2022/06/05 13:28:24;;;;;;;7.15;3.70;;;;;;;;;;5009958;28;20165;-84
2022/06/05 13:30:53;;;;;;;6.78;3.80;;;;;;;;;;5058376;28;20502;-83
2022/06/05 13:33:42;;;;;;;6.07;3.30;;;;;;;;;;5053155;28;20036;-82
2022/06/05 13:36:23;;;;;;;8.55;3.70;;;;;;;;;;5063630;28;20025;-82
2022/06/05 13:38:53;;;;;;;9.43;3.60;;;;;;;;;;5053051;28;20038;-84
2022/06/05 13:41:45;;;;;;;7.03;3.70;;;;;;;;;;5061317;28;20037;-83
2022/06/05 13:44:20;;;;;;;6.10;3.67;;;;;;;;;;5051589;28;20033;-83
2022/06/05 13:47:00;;;;;;;4.97;3.40;;;;;;;;;;5060951;28;20491;-84
2022/06/05 13:49:35;;;;;;;7.97;3.67;;;;;;;;;;5071828;28;20493;-82
2022/06/05 13:52:09;;;;;;;7.40;3.50;;;;;;;;;;5070116;28;20115;-84
2022/06/05 13:54:38;;;;;;;6.88;3.90;;;;;;;;;;5071464;28;20032;-83
2022/06/05 13:57:09;;;;;;;8.52;3.67;;;;;;;;;;5065949;28;20067;-84
2022/06/05 13:59:59;;;;;;;8.57;3.83;;;;;;;;;;5051963;28;20035;-85
2022/06/05 14:02:33;;;;;;;8.60;3.78;;;;;;;;;;4999653;28;20136;-84
2022/06/05 14:05:01;;;;;;;5.55;3.42;;;;;;;;;;5010996;28;20049;-84
2022/06/05 14:07:41;;;;;;;8.38;3.90;;;;;;;;;;4996912;28;20037;-81
2022/06/05 14:10:10;;;;;;;6.18;3.33;;;;;;;;;;5014645;28;20029;-84
2022/06/05 14:12:43;;;;;;;5.30;3.25;;;;;;;;;;5012331;28;20021;-85
2022/06/05 14:15:13;;;;;;;5.20;3.17;;;;;;;;;;5016488;28;20061;-84
2022/06/05 14:17:44;;;;;;;5.85;3.60;;;;;;;;;;5017969;28;20068;-84
2022/06/05 14:20:19;;;;;;;11.52;4.20;;;;;;;;;;5015878;28;20088;-84
2022/06/05 14:22:48;;;;;;;7.47;4.78;;;;;;;;;;5019509;28;20036;-83
2022/06/05 14:25:29;;;;;;;7.07;3.90;;;;;;;;;;5018130;28;20064;-84
2022/06/05 14:28:00;;;;;;;4.65;2.92;;;;;;;;;;5001576;28;20069;-83
2022/06/05 14:30:28;;;;;;;6.00;3.95;;;;;;;;;;5028508;28;20041;-83
2022/06/05 14:32:55;;;;;;;8.02;4.30;;;;;;;;;;5016618;28;20072;-84
2022/06/05 14:35:29;;;;;;;7.93;3.67;;;;;;;;;;5016365;28;20051;-84
2022/06/05 14:38:00;;;;;;;14.30;3.80;;;;;;;;;;5017932;28;20029;-84
2022/06/05 14:40:49;;;;;;;7.15;3.42;;;;;;;;;;5063566;28;20038;-86
2022/06/05 14:43:30;;;;;;;5.43;2.83;;;;;;;;;;5038357;28;20071;-86
2022/06/05 14:46:04;;;;;;;5.55;3.20;;;;;;;;;;5037775;28;20041;-80
2022/06/05 14:48:30;;;;;;;6.50;2.70;;;;;;;;;;5054815;28;20065;-87
2022/06/05 14:51:01;;;;;;;7.47;3.25;;;;;;;;;;5042323;28;20029;-86
2022/06/05 14:53:35;;;;;;;9.95;3.30;;;;;;;;;;5053630;28;20037;-85
2022/06/05 14:59:09;;;;;;;11.63;3.30;;;;;;;;;;5054180;28;20430;-84
2022/06/05 15:01:54;;;;;;;6.10;3.08;;;;;;;;;;5033586;28;20087;-82
2022/06/05 15:04:27;;;;;;;7.25;3.40;;;;;;;;;;5028088;28;20419;-80
2022/06/05 15:06:57;;;;;;;25.98;4.53;;;;;;;;;;5040062;28;20061;-77
2022/06/05 15:09:32;;;;;;;6.97;3.17;;;;;;;;;;5054540;28;20052;-76
2022/06/05 15:12:05;;;;;;;5.65;3.30;;;;;;;;;;5037642;28;20499;-77
2022/06/05 15:14:49;;;;;;;8.13;3.15;;;;;;;;;;5044761;28;20143;-76
2022/06/05 15:17:21;;;;;;;15.30;3.63;;;;;;;;;;5050228;28;20037;-78
2022/06/05 15:19:47;;;;;;;10.48;3.83;;;;;;;;;;5040707;28;20516;-81
2022/06/05 15:22:16;;;;;;;6.55;2.95;;;;;;;;;;5066871;28;20482;-81
2022/06/05 15:24:45;;;;;;;7.43;3.35;;;;;;;;;;5061336;28;20033;-77
2022/06/05 15:27:30;;;;;;;4.65;2.80;;;;;;;;;;5058753;28;20033;-81
2022/06/05 15:30:02;;;;;;;6.00;3.22;;;;;;;;;;5069619;28;20490;-80
2022/06/05 15:32:34;;;;;;;12.63;3.70;;;;;;;;;;5065533;28;20169;-86